Time;durP1;ratioP1;P1;durP2;ratioP2;P2;SDS_P1;SDS_P2;PMS_P1;PMS_P2;Temp;Humidity;BMP_temperature;BMP_pressure;BME280_temperature;BME280_humidity;BME280_pressure;Samples;Min_cycle;Max_cycle;Signal;HPM_P1;HPM_P2
2023/10/04 00:01:39;;;;;;;56.03;52.13;;;11.90;99.90;;;;;;6131401;23;20009;-82
2023/10/04 00:04:05;;;;;;;55.33;51.63;;;11.80;99.90;;;;;;6155780;23;20020;-83
2023/10/04 00:06:31;;;;;;;45.30;42.22;;;11.80;99.90;;;;;;6155556;23;20091;-83
2023/10/04 00:08:59;;;;;;;49.42;46.05;;;11.80;99.90;;;;;;6155812;23;20021;-82
2023/10/04 00:11:24;;;;;;;55.88;51.72;;;11.80;99.90;;;;;;6155744;23;20013;-83
2023/10/04 00:13:51;;;;;;;48.35;44.58;;;11.80;99.90;;;;;;6181866;23;20009;-83
2023/10/04 00:16:17;;;;;;;54.22;50.45;;;11.80;99.90;;;;;;6155042;23;20360;-83
2023/10/04 00:18:43;;;;;;;56.80;53.05;;;11.80;99.90;;;;;;6130128;23;20089;-83
2023/10/04 00:21:12;;;;;;;52.35;48.65;;;11.80;99.90;;;;;;6130662;23;20048;-82
2023/10/04 00:23:38;;;;;;;46.65;43.40;;;11.70;99.90;;;;;;6154558;23;20021;-83
2023/10/04 00:26:07;;;;;;;47.60;43.90;;;11.70;99.90;;;;;;6155460;23;20013;-82
2023/10/04 00:28:32;;;;;;;53.08;49.45;;;11.80;99.90;;;;;;6130232;23;20020;-83
2023/10/04 00:30:58;;;;;;;49.17;45.55;;;11.70;99.90;;;;;;6155153;23;20021;-82
2023/10/04 00:33:24;;;;;;;49.95;46.25;;;11.70;99.90;;;;;;6130382;23;20021;-83
2023/10/04 00:35:50;;;;;;;55.05;51.05;;;11.70;99.90;;;;;;6154914;23;20352;-82
2023/10/04 00:38:17;;;;;;;56.90;53.03;;;11.70;99.90;;;;;;6154710;23;20017;-83
2023/10/04 00:40:43;;;;;;;51.15;47.33;;;11.70;99.90;;;;;;6154741;23;20017;-83
2023/10/04 00:43:15;;;;;;;48.65;45.08;;;11.80;99.90;;;;;;6154804;23;20040;-83
2023/10/04 00:45:48;;;;;;;53.50;49.88;;;11.80;99.90;;;;;;6155372;23;20013;-82
2023/10/04 00:48:18;;;;;;;52.70;49.30;;;11.80;99.90;;;;;;6155058;23;20023;-83
2023/10/04 00:50:44;;;;;;;49.38;45.53;;;11.80;99.90;;;;;;6155111;23;20017;-82
2023/10/04 00:53:13;;;;;;;54.53;50.50;;;11.80;99.90;;;;;;6154663;23;20021;-83
2023/10/04 00:55:42;;;;;;;49.83;46.05;;;11.70;99.90;;;;;;6154900;23;20017;-82
2023/10/04 00:58:08;;;;;;;53.55;49.25;;;11.70;99.90;;;;;;6154665;23;20433;-82
2023/10/04 01:00:41;;;;;;;51.20;46.95;;;11.70;99.90;;;;;;6154504;23;20013;-82
2023/10/04 01:03:09;;;;;;;53.47;49.50;;;11.70;99.90;;;;;;6130212;23;20009;-82
2023/10/04 01:05:44;;;;;;;47.65;44.20;;;11.80;99.90;;;;;;6154941;23;20009;-83
2023/10/04 01:08:12;;;;;;;49.75;46.17;;;11.70;99.90;;;;;;6154038;23;20024;-82
2023/10/04 01:10:38;;;;;;;56.55;51.97;;;11.70;99.90;;;;;;6155301;23;20092;-83
2023/10/04 01:13:09;;;;;;;52.88;49.13;;;11.70;99.90;;;;;;6155216;23;20013;-82
2023/10/04 01:15:42;;;;;;;58.08;53.90;;;11.70;99.90;;;;;;6154796;23;20429;-82
2023/10/04 01:18:12;;;;;;;56.05;51.50;;;11.70;99.90;;;;;;6154868;23;20016;-82
2023/10/04 01:20:39;;;;;;;53.83;49.67;;;11.20;99.90;;;;;;6154544;23;20013;-83
2023/10/04 01:23:06;;;;;;;53.95;49.78;;;11.70;99.90;;;;;;6154326;23;20051;-83
2023/10/04 01:25:36;;;;;;;54.05;49.10;;;11.70;99.90;;;;;;6154950;23;20017;-83
2023/10/04 01:28:11;;;;;;;50.60;46.47;;;11.70;99.90;;;;;;6130123;23;20024;-83
2023/10/04 01:30:38;;;;;;;51.88;47.75;;;12.10;99.90;;;;;;6154564;23;20017;-83
2023/10/04 01:33:05;;;;;;;48.13;44.63;;;11.60;99.90;;;;;;6154288;23;20105;-83
2023/10/04 01:35:33;;;;;;;57.83;53.47;;;11.60;99.90;;;;;;6129259;23;20009;-82
2023/10/04 01:37:59;;;;;;;49.75;46.08;;;11.60;99.90;;;;;;6154517;23;20077;-83
2023/10/04 01:40:26;;;;;;;57.20;52.83;;;11.60;99.90;;;;;;6154340;23;20092;-83
2023/10/04 01:42:55;;;;;;;55.40;50.97;;;11.60;99.90;;;;;;6129799;23;20079;-83
2023/10/04 01:45:21;;;;;;;62.05;58.10;;;11.60;99.90;;;;;;6129982;23;20013;-82
2023/10/04 01:47:49;;;;;;;52.83;47.63;;;11.80;99.90;;;;;;6154485;23;20047;-82
2023/10/04 01:50:15;;;;;;;51.00;47.40;;;12.00;99.90;;;;;;6153594;23;20013;-82
2023/10/04 01:52:48;;;;;;;50.25;46.05;;;11.60;99.90;;;;;;6154488;23;20017;-81
2023/10/04 01:55:16;;;;;;;57.72;52.97;;;11.50;99.90;;;;;;6154219;23;20051;-82
2023/10/04 01:57:43;;;;;;;52.38;48.28;;;11.80;99.90;;;;;;6180583;23;20012;-82
2023/10/04 02:00:11;;;;;;;50.08;46.15;;;12.10;99.90;;;;;;6154365;23;20016;-82
2023/10/04 02:02:40;;;;;;;47.17;42.90;;;11.50;99.90;;;;;;6154208;23;20072;-82
2023/10/04 02:05:16;;;;;;;47.15;43.60;;;11.80;99.90;;;;;;6153804;23;20017;-82
2023/10/04 02:07:46;;;;;;;52.45;48.15;;;11.50;99.90;;;;;;6154502;23;20067;-82
2023/10/04 02:10:17;;;;;;;56.05;51.58;;;11.50;99.90;;;;;;6154428;23;20023;-82
2023/10/04 02:12:43;;;;;;;51.70;47.40;;;12.20;99.90;;;;;;6154418;23;20070;-82
2023/10/04 02:15:14;;;;;;;54.13;50.30;;;11.70;99.90;;;;;;6154531;23;20017;-82
2023/10/04 02:17:44;;;;;;;48.38;44.47;;;11.60;99.90;;;;;;6154321;23;20044;-82
2023/10/04 02:20:23;;;;;;;47.97;43.50;;;11.60;99.90;;;;;;6153941;23;20036;-82
2023/10/04 02:22:54;;;;;;;53.72;49.88;;;12.00;99.90;;;;;;6154321;23;20009;-82
2023/10/04 02:25:20;;;;;;;46.08;42.45;;;11.60;99.90;;;;;;6181186;23;20024;-82
2023/10/04 02:27:49;;;;;;;48.58;44.78;;;11.70;99.90;;;;;;6153943;23;20017;-83
2023/10/04 02:30:18;;;;;;;48.72;44.92;;;11.60;99.90;;;;;;6154208;23;20017;-83
2023/10/04 02:32:44;;;;;;;49.50;45.47;;;11.60;99.90;;;;;;6154416;23;20017;-82
2023/10/04 02:35:26;;;;;;;44.75;41.13;;;11.60;99.90;;;;;;6153342;23;20024;-82
2023/10/04 02:37:58;;;;;;;47.30;43.63;;;11.60;99.90;;;;;;6153990;23;20017;-82
2023/10/04 02:40:27;;;;;;;44.45;40.63;;;11.60;99.90;;;;;;6129507;23;20417;-82
2023/10/04 02:42:58;;;;;;;50.53;46.45;;;11.60;99.90;;;;;;6155101;23;20440;-82
2023/10/04 02:45:26;;;;;;;50.53;46.53;;;12.00;99.90;;;;;;6156673;23;20017;-82
2023/10/04 02:47:53;;;;;;;51.85;47.95;;;11.60;99.90;;;;;;6156193;23;20079;-82
2023/10/04 02:50:20;;;;;;;54.53;50.08;;;11.60;99.90;;;;;;6155525;23;20032;-82
2023/10/04 02:52:46;;;;;;;52.20;48.15;;;11.60;99.90;;;;;;6131462;23;20017;-82
2023/10/04 02:55:17;;;;;;;51.47;47.00;;;11.60;99.90;;;;;;6156477;23;20088;-81
2023/10/04 02:57:50;;;;;;;51.13;46.97;;;11.60;99.90;;;;;;6156134;23;20499;-82
2023/10/04 03:00:19;;;;;;;54.50;50.50;;;11.70;99.90;;;;;;6131202;23;20009;-82
2023/10/04 03:02:50;;;;;;;47.97;44.28;;;11.60;99.90;;;;;;6130862;23;20009;-82
2023/10/04 03:05:20;;;;;;;52.28;48.08;;;11.60;99.90;;;;;;6155757;23;20049;-82
2023/10/04 03:07:50;;;;;;;46.15;43.00;;;11.60;99.90;;;;;;6155712;23;20017;-82
2023/10/04 03:10:24;;;;;;;46.00;42.30;;;11.80;99.90;;;;;;6156177;23;20166;-82
2023/10/04 03:12:54;;;;;;;50.17;46.00;;;11.60;99.90;;;;;;6131535;23;20041;-82
2023/10/04 03:15:22;;;;;;;54.17;50.28;;;11.70;99.90;;;;;;6155655;23;20043;-82
2023/10/04 03:17:51;;;;;;;43.80;40.17;;;11.50;99.90;;;;;;6130119;23;20045;-82
2023/10/04 03:20:20;;;;;;;50.30;46.22;;;11.50;99.90;;;;;;6155634;23;20033;-82
2023/10/04 03:22:47;;;;;;;50.10;46.28;;;11.50;99.90;;;;;;6130917;23;20010;-82
2023/10/04 03:25:15;;;;;;;44.92;41.42;;;11.50;99.90;;;;;;6131378;23;20132;-82
2023/10/04 03:27:44;;;;;;;46.03;42.58;;;11.50;99.90;;;;;;6130922;23;20009;-82
2023/10/04 03:30:14;;;;;;;48.95;44.65;;;11.50;99.90;;;;;;6156072;23;20470;-82
2023/10/04 03:32:45;;;;;;;43.10;39.53;;;11.50;99.90;;;;;;6154600;23;20020;-83
2023/10/04 03:35:14;;;;;;;55.83;51.42;;;11.40;99.90;;;;;;6155716;23;20024;-82
2023/10/04 03:38:07;;;;;;;50.78;46.55;;;11.50;99.90;;;;;;6182023;23;20028;-82
2023/10/04 03:40:34;;;;;;;45.50;41.42;;;11.40;99.90;;;;;;6154722;23;20021;-81
2023/10/04 03:43:02;;;;;;;45.63;41.53;;;11.60;99.90;;;;;;6155571;23;20013;-81
2023/10/04 03:45:28;;;;;;;55.35;51.50;;;11.40;99.90;;;;;;6155465;23;20009;-82
2023/10/04 03:47:54;;;;;;;54.22;49.78;;;11.50;99.90;;;;;;6130430;23;20078;-82
2023/10/04 03:50:19;;;;;;;48.90;44.72;;;11.30;99.90;;;;;;6131131;23;20073;-83
2023/10/04 03:52:47;;;;;;;54.83;50.75;;;11.30;99.90;;;;;;6155286;23;20071;-82
2023/10/04 03:55:13;;;;;;;46.03;42.55;;;11.30;99.90;;;;;;6155089;23;20024;-82
2023/10/04 03:57:42;;;;;;;50.55;46.42;;;11.50;99.90;;;;;;6132979;23;20009;-82
2023/10/04 04:00:13;;;;;;;49.25;45.08;;;11.40;99.90;;;;;;6134752;23;20017;-82
2023/10/04 04:02:39;;;;;;;43.40;39.03;;;11.40;99.90;;;;;;6155125;23;20436;-82
2023/10/04 04:05:13;;;;;;;46.20;42.25;;;11.80;99.90;;;;;;6157877;23;20088;-82
2023/10/04 04:07:42;;;;;;;51.78;47.50;;;11.40;99.90;;;;;;6155207;23;20020;-83
2023/10/04 04:10:11;;;;;;;48.58;44.63;;;11.40;99.90;;;;;;6155109;23;20508;-83
2023/10/04 04:12:40;;;;;;;44.38;40.35;;;11.50;99.90;;;;;;6154991;23;20020;-82
2023/10/04 04:15:10;;;;;;;47.15;43.60;;;11.40;99.90;;;;;;6155221;23;20043;-82
2023/10/04 04:17:39;;;;;;;43.80;40.03;;;11.40;99.90;;;;;;6155137;23;20013;-83
2023/10/04 04:20:19;;;;;;;45.45;41.33;;;11.70;99.90;;;;;;6155709;23;20020;-83
2023/10/04 04:22:55;;;;;;;49.50;45.15;;;11.40;99.90;;;;;;6155246;23;20423;-83
2023/10/04 04:25:23;;;;;;;48.92;44.55;;;11.40;99.90;;;;;;6155629;23;20009;-82
2023/10/04 04:27:50;;;;;;;46.17;42.67;;;11.50;99.90;;;;;;6155499;23;20040;-82
2023/10/04 04:30:28;;;;;;;50.08;46.33;;;11.40;99.90;;;;;;6154543;23;20636;-82
2023/10/04 04:32:57;;;;;;;46.58;43.05;;;11.40;99.90;;;;;;6155375;23;20009;-82
2023/10/04 04:38:19;;;;;;;45.47;41.88;;;11.30;99.90;;;;;;6154925;23;20013;-82
2023/10/04 04:40:52;;;;;;;46.63;42.88;;;11.50;99.90;;;;;;6155478;23;20071;-82
2023/10/04 04:45:59;;;;;;;43.33;40.00;;;11.60;99.90;;;;;;6154651;23;20021;-82
2023/10/04 04:48:26;;;;;;;42.00;37.90;;;11.40;99.90;;;;;;6155177;23;20588;-82
2023/10/04 04:50:54;;;;;;;48.17;43.95;;;11.40;99.90;;;;;;6155065;23;20013;-82
2023/10/04 04:53:22;;;;;;;46.00;42.20;;;11.50;99.90;;;;;;6155220;23;20017;-82
2023/10/04 04:55:51;;;;;;;44.55;40.58;;;11.40;99.90;;;;;;6155045;23;20027;-82
2023/10/04 04:58:23;;;;;;;43.95;40.30;;;11.50;99.90;;;;;;6155984;23;20017;-84
2023/10/04 05:00:55;;;;;;;47.25;43.58;;;11.50;99.90;;;;;;6130774;23;20060;-83
2023/10/04 05:03:21;;;;;;;41.53;38.13;;;11.50;99.90;;;;;;6156050;23;20013;-83
2023/10/04 05:05:49;;;;;;;42.65;39.00;;;11.50;99.90;;;;;;6181305;23;20059;-82
2023/10/04 05:08:20;;;;;;;41.78;37.90;;;11.50;99.90;;;;;;6155308;23;20013;-83
2023/10/04 05:10:49;;;;;;;43.72;40.05;;;11.50;99.90;;;;;;6155332;23;20351;-83
2023/10/04 05:13:16;;;;;;;47.42;43.20;;;11.50;99.90;;;;;;6154575;23;20445;-82
2023/10/04 05:15:43;;;;;;;50.10;45.88;;;11.50;99.90;;;;;;6155159;23;20017;-83
2023/10/04 05:18:15;;;;;;;38.65;35.38;;;11.50;99.90;;;;;;6154632;23;20017;-83
2023/10/04 05:20:42;;;;;;;42.05;38.45;;;11.50;99.90;;;;;;6130124;23;20009;-83
2023/10/04 05:23:09;;;;;;;42.22;38.47;;;11.60;99.90;;;;;;6155381;23;20123;-83
2023/10/04 05:25:36;;;;;;;47.22;43.55;;;11.90;99.90;;;;;;6130532;23;20392;-83
2023/10/04 05:28:12;;;;;;;39.30;35.92;;;11.60;99.90;;;;;;6153334;23;20344;-83
2023/10/04 05:30:39;;;;;;;39.97;36.50;;;11.70;99.90;;;;;;6180033;23;20005;-83
2023/10/04 05:33:08;;;;;;;41.67;38.13;;;12.10;99.90;;;;;;6128964;23;20263;-82
2023/10/04 05:35:41;;;;;;;39.22;36.05;;;11.70;99.90;;;;;;6153331;23;20005;-83
2023/10/04 05:38:07;;;;;;;41.47;37.58;;;11.70;99.90;;;;;;6128575;23;20075;-83
2023/10/04 05:40:35;;;;;;;47.03;43.20;;;11.70;99.90;;;;;;6153391;23;20005;-82
2023/10/04 05:43:03;;;;;;;42.92;39.03;;;11.80;99.90;;;;;;6153883;23;20012;-82
2023/10/04 05:45:29;;;;;;;38.95;35.70;;;11.70;99.90;;;;;;6155022;23;20025;-83
2023/10/04 05:47:55;;;;;;;42.95;39.10;;;11.70;99.90;;;;;;6155177;23;20436;-84
2023/10/04 05:50:22;;;;;;;36.10;32.45;;;11.60;99.90;;;;;;6155757;23;20017;-83
2023/10/04 05:52:51;;;;;;;36.80;33.28;;;11.60;99.90;;;;;;6156097;23;20392;-83
2023/10/04 05:55:18;;;;;;;40.50;37.08;;;11.80;99.90;;;;;;6131599;23;20071;-83
2023/10/04 05:57:46;;;;;;;36.10;32.55;;;11.80;99.90;;;;;;6131331;23;20368;-83
2023/10/04 06:00:23;;;;;;;39.92;36.47;;;11.80;99.90;;;;;;6156495;23;20016;-83
2023/10/04 06:02:54;;;;;;;38.30;34.28;;;11.90;99.90;;;;;;6155320;23;20055;-82
2023/10/04 06:05:24;;;;;;;38.60;35.42;;;11.90;99.90;;;;;;6155069;23;20017;-83
2023/10/04 06:07:54;;;;;;;35.47;31.95;;;11.90;99.90;;;;;;6155301;23;20032;-83
2023/10/04 06:10:23;;;;;;;41.88;38.10;;;12.30;99.90;;;;;;6154766;23;20027;-83
2023/10/04 06:12:50;;;;;;;39.90;35.97;;;11.80;99.90;;;;;;6154146;23;20044;-83
2023/10/04 06:15:17;;;;;;;34.28;31.58;;;11.90;99.90;;;;;;6154500;23;20016;-83
2023/10/04 06:17:52;;;;;;;32.60;29.38;;;11.90;99.90;;;;;;6153993;23;20013;-83
2023/10/04 06:20:28;;;;;;;35.33;32.20;;;11.90;99.90;;;;;;6154340;23;20009;-83
2023/10/04 06:22:59;;;;;;;37.78;33.90;;;11.90;99.90;;;;;;6154679;23;20045;-83
2023/10/04 06:25:26;;;;;;;36.35;33.25;;;12.00;99.90;;;;;;6155071;23;20013;-83
2023/10/04 06:27:55;;;;;;;38.60;34.75;;;12.10;99.90;;;;;;6130259;23;20020;-83
2023/10/04 06:30:22;;;;;;;35.65;32.08;;;12.40;99.90;;;;;;6154640;23;20025;-83
2023/10/04 06:32:55;;;;;;;32.17;29.38;;;12.40;99.90;;;;;;6154845;23;20017;-83
2023/10/04 06:35:25;;;;;;;42.40;38.88;;;12.20;99.90;;;;;;6180871;23;20093;-83
2023/10/04 06:37:59;;;;;;;35.97;33.05;;;12.20;99.90;;;;;;6154978;23;20017;-83
2023/10/04 06:40:26;;;;;;;36.25;32.63;;;12.30;99.90;;;;;;6154171;23;20393;-83
2023/10/04 06:42:55;;;;;;;34.90;29.48;;;12.30;99.90;;;;;;6154381;23;20028;-83
2023/10/04 06:45:24;;;;;;;27.05;24.45;;;12.40;99.90;;;;;;6154531;23;20005;-83
2023/10/04 06:47:53;;;;;;;33.25;30.15;;;12.40;99.90;;;;;;6180911;23;20340;-83
2023/10/04 06:50:21;;;;;;;32.97;29.98;;;12.50;99.90;;;;;;6154478;23;20068;-83
2023/10/04 06:52:49;;;;;;;28.83;25.02;;;12.50;99.90;;;;;;6155124;23;20064;-83
2023/10/04 06:55:16;;;;;;;30.73;26.48;;;12.60;99.90;;;;;;6154705;23;20175;-84
2023/10/04 06:57:43;;;;;;;38.78;35.00;;;12.60;99.90;;;;;;6130366;23;20009;-83
2023/10/04 07:00:15;;;;;;;30.63;27.35;;;12.60;99.90;;;;;;6154722;23;20009;-83
2023/10/04 07:02:43;;;;;;;27.77;24.90;;;12.70;99.90;;;;;;6154840;23;20009;-83
2023/10/04 07:05:16;;;;;;;28.67;26.02;;;12.70;99.90;;;;;;6154717;23;20451;-84
2023/10/04 07:07:51;;;;;;;35.13;32.25;;;12.80;99.90;;;;;;6154986;23;20344;-83
2023/10/04 07:10:20;;;;;;;36.40;33.13;;;12.90;99.90;;;;;;6129853;23;20017;-83
2023/10/04 07:12:51;;;;;;;28.08;25.25;;;12.90;99.90;;;;;;6154724;23;20017;-83
2023/10/04 07:15:18;;;;;;;29.25;26.45;;;12.90;99.90;;;;;;6181278;23;20009;-83
2023/10/04 07:17:44;;;;;;;35.28;29.48;;;13.00;99.90;;;;;;6154598;23;20021;-83
2023/10/04 07:20:15;;;;;;;26.13;23.05;;;13.00;99.90;;;;;;6130072;23;20398;-83
2023/10/04 07:22:58;;;;;;;21.48;18.00;;;13.30;99.90;;;;;;6155011;23;20020;-83
2023/10/04 07:25:26;;;;;;;35.47;32.20;;;13.10;99.90;;;;;;6154355;23;20031;-83
2023/10/04 07:27:52;;;;;;;31.35;27.25;;;13.20;99.90;;;;;;6155437;23;20053;-83
2023/10/04 07:30:19;;;;;;;33.50;30.42;;;13.30;99.90;;;;;;6156763;23;20368;-83
2023/10/04 07:32:46;;;;;;;31.30;28.15;;;13.30;99.90;;;;;;6132202;23;20009;-83
2023/10/04 07:35:16;;;;;;;26.75;23.65;;;13.40;99.90;;;;;;6156802;23;20013;-83
2023/10/04 07:37:45;;;;;;;30.25;25.50;;;13.70;99.90;;;;;;6156462;23;20055;-83
2023/10/04 07:40:18;;;;;;;22.15;16.45;;;13.50;99.90;;;;;;6155990;23;20013;-83
2023/10/04 07:42:45;;;;;;;31.88;28.95;;;13.60;99.90;;;;;;6156766;23;20005;-83
2023/10/04 07:45:12;;;;;;;27.65;21.48;;;13.60;99.90;;;;;;6156370;23;20440;-83
2023/10/04 07:47:42;;;;;;;30.50;27.42;;;14.20;99.90;;;;;;6156710;23;20009;-83
2023/10/04 07:50:11;;;;;;;21.17;15.45;;;13.80;99.90;;;;;;6131593;23;20009;-83
2023/10/04 07:52:38;;;;;;;30.05;22.30;;;13.90;99.90;;;;;;6155468;23;20013;-83
2023/10/04 07:55:05;;;;;;;29.02;20.95;;;13.90;99.90;;;;;;6156292;23;20017;-83
2023/10/04 07:57:37;;;;;;;27.98;21.90;;;14.00;99.90;;;;;;6156061;23;20016;-83
2023/10/04 08:00:08;;;;;;;30.60;25.88;;;14.00;99.90;;;;;;6131839;23;20060;-83
2023/10/04 08:02:33;;;;;;;24.73;22.33;;;14.10;99.90;;;;;;6157232;23;20017;-83
2023/10/04 08:04:59;;;;;;;23.15;18.58;;;14.20;99.90;;;;;;6156184;23;20468;-83
2023/10/04 08:07:26;;;;;;;30.65;27.45;;;14.30;99.90;;;;;;6156428;23;20024;-83
2023/10/04 08:09:52;;;;;;;20.92;12.88;;;14.20;99.90;;;;;;6133438;23;20333;-83
2023/10/04 08:12:20;;;;;;;31.27;28.10;;;14.30;99.90;;;;;;6157109;23;20076;-83
2023/10/04 08:14:47;;;;;;;22.88;13.50;;;14.40;99.90;;;;;;6157057;23;20013;-84
2023/10/04 08:17:13;;;;;;;30.30;27.27;;;14.50;99.90;;;;;;6156929;23;20068;-84
2023/10/04 08:19:38;;;;;;;22.50;16.52;;;14.50;99.90;;;;;;6156622;23;20457;-83
2023/10/04 08:22:04;;;;;;;30.98;27.35;;;14.60;99.90;;;;;;6156053;23;20045;-83
2023/10/04 08:24:29;;;;;;;23.17;12.02;;;14.60;99.90;;;;;;6157015;23;20021;-84
2023/10/04 08:26:55;;;;;;;23.63;19.92;;;14.70;99.90;;;;;;6132095;23;20096;-83
2023/10/04 08:29:23;;;;;;;26.75;21.73;;;14.90;99.90;;;;;;6183023;23;20017;-84
2023/10/04 08:31:48;;;;;;;22.90;13.95;;;14.90;99.90;;;;;;6132132;23;20278;-83
2023/10/04 08:34:18;;;;;;;15.23;12.23;;;14.90;99.90;;;;;;6156916;23;20492;-83
2023/10/04 08:36:44;;;;;;;24.23;14.70;;;14.90;99.90;;;;;;6156044;23;20067;-84
2023/10/04 08:39:10;;;;;;;32.30;25.42;;;15.00;99.90;;;;;;6132752;23;20104;-84
2023/10/04 08:41:40;;;;;;;27.17;18.45;;;15.20;99.90;;;;;;6132372;23;20017;-84
2023/10/04 08:44:06;;;;;;;27.30;21.30;;;15.10;99.90;;;;;;6152704;23;20013;-83
2023/10/04 08:46:32;;;;;;;25.05;22.48;;;15.10;99.90;;;;;;6153807;23;20017;-83
2023/10/04 08:49:00;;;;;;;21.05;15.95;;;15.10;99.90;;;;;;6128949;23;20072;-84
2023/10/04 08:51:50;;;;;;;22.42;18.98;;;15.10;99.90;;;;;;6152437;23;20071;-84
2023/10/04 08:54:24;;;;;;;26.10;22.85;;;15.70;99.90;;;;;;6127959;23;20491;-84
2023/10/04 08:56:58;;;;;;;18.98;15.50;;;15.20;99.90;;;;;;6153088;23;20275;-84
2023/10/04 08:59:25;;;;;;;21.90;19.67;;;15.20;99.90;;;;;;6153720;23;20021;-84
2023/10/04 09:01:51;;;;;;;21.08;15.13;;;15.20;99.90;;;;;;6128515;23;20095;-83
2023/10/04 09:04:20;;;;;;;24.60;22.23;;;15.20;99.90;;;;;;6153845;23;20017;-84
2023/10/04 09:06:47;;;;;;;23.73;17.67;;;15.20;99.90;;;;;;6153442;23;20016;-84
2023/10/04 09:09:15;;;;;;;26.17;21.42;;;15.20;99.90;;;;;;6153479;23;20010;-84
2023/10/04 09:11:41;;;;;;;25.20;22.60;;;15.20;99.90;;;;;;6128948;23;20013;-84
2023/10/04 09:14:08;;;;;;;22.98;13.63;;;15.20;99.90;;;;;;6128575;23;20024;-84
2023/10/04 09:16:34;;;;;;;25.15;19.40;;;15.30;99.90;;;;;;6129223;23;20009;-84
2023/10/04 09:19:17;;;;;;;21.23;14.80;;;15.30;99.90;;;;;;6154097;23;20133;-83
2023/10/04 09:21:44;;;;;;;21.48;15.90;;;15.30;99.90;;;;;;6153401;23;20295;-84
2023/10/04 09:24:11;;;;;;;20.38;15.55;;;15.50;99.90;;;;;;6129539;23;20019;-83
2023/10/04 09:26:53;;;;;;;20.98;11.32;;;15.60;99.90;;;;;;6128879;23;20044;-84
2023/10/04 09:29:36;;;;;;;27.20;24.52;;;15.70;99.90;;;;;;6153695;23;20013;-84
2023/10/04 09:32:03;;;;;;;18.00;11.60;;;15.70;99.90;;;;;;6155570;23;20040;-84
2023/10/04 09:34:30;;;;;;;29.75;26.48;;;15.80;99.90;;;;;;6129404;23;20053;-84
2023/10/04 09:36:56;;;;;;;28.33;25.00;;;16.00;99.90;;;;;;6154962;23;20134;-84
2023/10/04 09:39:32;;;;;;;20.42;14.98;;;16.20;99.90;;;;;;6154697;23;20092;-84
2023/10/04 09:41:59;;;;;;;21.65;15.80;;;16.40;99.90;;;;;;6130482;23;20018;-83
2023/10/04 09:44:27;;;;;;;21.48;16.23;;;16.60;99.90;;;;;;6154752;23;20078;-84
2023/10/04 09:46:54;;;;;;;22.77;15.40;;;16.60;99.90;;;;;;6154846;23;20068;-83
2023/10/04 09:49:22;;;;;;;26.35;14.93;;;16.90;99.90;;;;;;6130742;23;20030;-84
2023/10/04 09:51:50;;;;;;;20.48;11.60;;;17.00;99.90;;;;;;6155126;23;20373;-85
2023/10/04 09:54:16;;;;;;;20.23;14.65;;;16.90;99.90;;;;;;6155903;23;20157;-84
2023/10/04 09:56:44;;;;;;;21.45;14.18;;;16.90;99.90;;;;;;6155668;23;20084;-84
2023/10/04 09:59:17;;;;;;;24.83;21.55;;;16.90;99.90;;;;;;6155095;23;20084;-84
2023/10/04 10:01:43;;;;;;;17.23;10.93;;;16.80;99.90;;;;;;6131463;23;20017;-84
2023/10/04 10:04:19;;;;;;;20.27;11.25;;;16.90;99.90;;;;;;6155687;23;20272;-84
2023/10/04 10:06:59;;;;;;;19.73;11.45;;;17.00;99.90;;;;;;6155833;23;20013;-84
2023/10/04 10:09:28;;;;;;;16.20;11.57;;;16.90;99.90;;;;;;6131147;23;20113;-84
2023/10/04 10:11:55;;;;;;;19.58;11.07;;;16.90;99.90;;;;;;6154928;23;20361;-83
2023/10/04 10:14:22;;;;;;;18.73;12.45;;;16.80;99.90;;;;;;6130539;23;20021;-84
2023/10/04 10:16:54;;;;;;;17.80;12.10;;;16.90;99.90;;;;;;6155590;23;20076;-85
2023/10/04 10:19:22;;;;;;;20.20;16.40;;;17.00;99.90;;;;;;6130741;23;20042;-84
2023/10/04 10:22:10;;;;;;;18.85;13.32;;;17.00;99.90;;;;;;6132181;23;20009;-84
2023/10/04 10:24:56;;;;;;;18.98;12.68;;;17.00;99.90;;;;;;6152751;23;20014;-84
2023/10/04 10:27:28;;;;;;;21.33;14.18;;;17.00;99.90;;;;;;6149259;23;20021;-85
2023/10/04 10:29:57;;;;;;;21.85;14.00;;;16.90;99.90;;;;;;6124936;23;20014;-84
2023/10/04 10:32:24;;;;;;;21.70;12.13;;;16.90;99.90;;;;;;6148943;23;20353;-84
2023/10/04 10:35:08;;;;;;;16.42;12.60;;;16.80;99.90;;;;;;6149197;23;20021;-84
2023/10/04 10:37:38;;;;;;;16.48;12.55;;;17.00;99.90;;;;;;6124751;23;20014;-84
2023/10/04 10:40:13;;;;;;;16.17;12.70;;;17.10;99.90;;;;;;6149568;23;20017;-84
2023/10/04 10:43:10;;;;;;;17.70;13.10;;;17.10;99.90;;;;;;6124792;23;20018;-84
2023/10/04 10:45:36;;;;;;;20.35;13.07;;;17.10;99.90;;;;;;6125401;23;20048;-85
2023/10/04 10:48:02;;;;;;;18.42;14.23;;;17.30;99.90;;;;;;6148494;23;20018;-84
2023/10/04 10:50:37;;;;;;;16.63;13.23;;;17.40;99.90;;;;;;6149528;23;20017;-84
2023/10/04 10:53:09;;;;;;;20.95;13.82;;;17.40;99.90;;;;;;6149385;23;20204;-84
2023/10/04 10:55:34;;;;;;;21.98;13.43;;;17.40;99.90;;;;;;6149878;23;20019;-84
2023/10/04 10:58:00;;;;;;;20.48;13.48;;;17.50;99.90;;;;;;6149363;23;20403;-84
2023/10/04 11:00:32;;;;;;;18.67;14.52;;;17.60;99.90;;;;;;6125110;23;20014;-85
2023/10/04 11:03:04;;;;;;;15.27;13.30;;;17.60;99.90;;;;;;6125086;23;20017;-84
2023/10/04 11:05:30;;;;;;;18.40;14.45;;;17.50;99.90;;;;;;6151376;23;20018;-83
2023/10/04 11:07:56;;;;;;;21.35;14.07;;;17.50;99.90;;;;;;6151301;23;20444;-85
2023/10/04 11:10:25;;;;;;;18.60;14.35;;;17.50;99.90;;;;;;6151609;23;20021;-85
2023/10/04 11:12:54;;;;;;;17.35;14.02;;;17.50;99.90;;;;;;6126531;23;20049;-84
2023/10/04 11:15:23;;;;;;;17.35;14.45;;;17.40;99.90;;;;;;6151335;23;20104;-84
2023/10/04 11:17:51;;;;;;;16.98;14.18;;;17.40;99.90;;;;;;6150577;23;20013;-85
2023/10/04 11:20:17;;;;;;;18.90;14.45;;;17.40;99.90;;;;;;6126753;23;20015;-84
2023/10/04 11:22:48;;;;;;;19.00;13.85;;;17.40;99.90;;;;;;6151520;23;20018;-84
2023/10/04 11:25:14;;;;;;;22.00;14.77;;;17.30;99.90;;;;;;6151284;23;20017;-84
2023/10/04 11:27:43;;;;;;;21.02;13.85;;;17.50;99.90;;;;;;6150665;23;20072;-85
2023/10/04 11:30:10;;;;;;;24.98;14.35;;;17.40;99.90;;;;;;6125888;23;20017;-84
2023/10/04 11:32:46;;;;;;;19.65;13.65;;;17.40;99.90;;;;;;6151151;23;20037;-84
2023/10/04 11:35:15;;;;;;;20.73;13.40;;;17.30;99.90;;;;;;6150954;23;20041;-85
2023/10/04 11:37:41;;;;;;;22.80;14.18;;;17.20;99.90;;;;;;6150830;23;20017;-84
2023/10/04 11:40:12;;;;;;;19.17;14.15;;;17.20;99.90;;;;;;6151146;23;20025;-84
2023/10/04 11:42:41;;;;;;;19.17;13.43;;;17.30;99.90;;;;;;6151045;23;20010;-84
2023/10/04 11:45:26;;;;;;;22.05;14.32;;;17.40;99.90;;;;;;6149842;23;20364;-84
2023/10/04 11:48:01;;;;;;;16.33;13.85;;;17.50;99.90;;;;;;6126432;23;20453;-84
2023/10/04 11:50:48;;;;;;;16.67;13.32;;;17.50;99.90;;;;;;6151083;23;20056;-85
2023/10/04 11:53:27;;;;;;;16.75;13.40;;;17.60;99.90;;;;;;6150912;23;20072;-85
2023/10/04 11:55:58;;;;;;;20.88;14.52;;;17.50;99.90;;;;;;6126725;23;20009;-84
2023/10/04 11:58:23;;;;;;;17.80;13.00;;;17.60;99.90;;;;;;6151885;23;20018;-84
2023/10/04 12:01:05;;;;;;;20.75;12.55;;;17.60;99.90;;;;;;6150272;23;20097;-84
2023/10/04 12:03:32;;;;;;;15.32;12.30;;;17.80;99.90;;;;;;6126533;23;20249;-84
2023/10/04 12:05:59;;;;;;;18.75;12.52;;;17.90;99.90;;;;;;6150452;23;20414;-84
2023/10/04 12:08:25;;;;;;;21.75;14.00;;;18.00;99.90;;;;;;6126268;23;20028;-84
2023/10/04 12:10:51;;;;;;;18.77;13.57;;;18.00;99.90;;;;;;6151297;23;20021;-84
2023/10/04 12:13:16;;;;;;;17.25;13.70;;;18.10;99.90;;;;;;6150660;23;20049;-85
2023/10/04 12:15:42;;;;;;;18.70;12.77;;;18.20;99.90;;;;;;6125500;23;20018;-84
2023/10/04 12:18:09;;;;;;;17.45;13.05;;;18.10;99.90;;;;;;6126137;23;20014;-85
2023/10/04 12:20:36;;;;;;;15.77;13.45;;;18.10;99.90;;;;;;6150591;23;20088;-85
2023/10/04 12:23:02;;;;;;;17.63;12.48;;;18.00;99.90;;;;;;6150613;23;20413;-85
2023/10/04 12:25:28;;;;;;;16.83;10.95;;;18.10;99.90;;;;;;6150963;23;20312;-84
2023/10/04 12:27:54;;;;;;;17.13;12.90;;;18.00;99.90;;;;;;6150723;23;20013;-84
2023/10/04 12:30:23;;;;;;;19.85;13.20;;;18.00;99.90;;;;;;6125547;23;20052;-85
2023/10/04 12:32:49;;;;;;;19.60;12.57;;;18.00;99.90;;;;;;6126284;23;20009;-84
2023/10/04 12:35:15;;;;;;;18.90;13.88;;;18.10;99.90;;;;;;6125794;23;20107;-84
2023/10/04 12:37:41;;;;;;;17.38;13.13;;;18.10;99.90;;;;;;6125423;23;20017;-85
2023/10/04 12:40:18;;;;;;;19.38;13.50;;;18.10;99.90;;;;;;6150925;23;20013;-84
2023/10/04 12:42:46;;;;;;;16.00;13.27;;;18.00;99.90;;;;;;6149673;23;20384;-84
2023/10/04 12:45:12;;;;;;;16.08;13.98;;;18.10;99.90;;;;;;6150203;23;20022;-84